Time;durP1;ratioP1;P1;durP2;ratioP2;P2;SDS_P1;SDS_P2;PMS_P1;PMS_P2;Temp;Humidity;BMP_temperature;BMP_pressure;BME280_temperature;BME280_humidity;BME280_pressure;Samples;Min_cycle;Max_cycle;Signal;HPM_P1;HPM_P2
2022/05/28 00:01:51;;;;;;;;;;;;;;;;;;5086899;28;19927;-67
2022/05/28 00:04:17;;;;;;;;;;;;;;;;;;5086536;28;19924;-67
2022/05/28 00:06:44;;;;;;;;;;;;;;;;;;5104846;28;19928;-67
2022/05/28 00:09:10;;;;;;;;;;;;;;;;;;5104847;28;19924;-67
2022/05/28 00:11:36;;;;;;;;;;;;;;;;;;5104978;28;20011;-67
2022/05/28 00:14:02;;;;;;;;;;;;;;;;;;5104764;28;19927;-67
2022/05/28 00:16:28;;;;;;;;;;;;;;;;;;5104843;28;19920;-67
2022/05/28 00:18:54;;;;;;;;;;;;;;;;;;5086719;28;19927;-66
2022/05/28 00:21:20;;;;;;;;;;;;;;;;;;5086697;28;19920;-67
2022/05/28 00:23:46;;;;;;;;;;;;;;;;;;5086553;28;19927;-67
2022/05/28 00:26:12;;;;;;;;;;;;;;;;;;5104781;28;19927;-68
2022/05/28 00:28:38;;;;;;;;;;;;;;;;;;5104748;28;20002;-67
2022/05/28 00:31:04;;;;;;;;;;;;;;;;;;5104515;28;20014;-66
2022/05/28 00:33:30;;;;;;;;;;;;;;;;;;5086419;28;19920;-66
2022/05/28 00:35:57;;;;;;;;;;;;;;;;;;5104575;28;19942;-66
2022/05/28 00:38:24;;;;;;;;;;;;;;;;;;5104561;28;19965;-67
2022/05/28 00:40:50;;;;;;;;;;;;;;;;;;5104766;28;19983;-67
2022/05/28 00:43:16;;;;;;;;;;;;;;;;;;5104736;28;19935;-67
2022/05/28 00:45:42;;;;;;;;;;;;;;;;;;5104338;28;19920;-67
2022/05/28 00:48:08;;;;;;;;;;;;;;;;;;5104700;28;19927;-67
2022/05/28 00:50:34;;;;;;;;;;;;;;;;;;5108345;28;19924;-67
2022/05/28 00:53:00;;;;;;;;;;;;;;;;;;5090210;28;19920;-68
2022/05/28 00:55:26;;;;;;;;;;;;;;;;;;5108302;28;19920;-67
2022/05/28 00:57:52;;;;;;;;;;;;;;;;;;5107935;28;19920;-67
2022/05/28 01:00:18;;;;;;;;;;;;;;;;;;5108004;28;19923;-67
2022/05/28 01:02:44;;;;;;;;;;;;;;;;;;5107965;28;19931;-68
2022/05/28 01:05:10;;;;;;;;;;;;;;;;;;5089529;28;19931;-67
2022/05/28 01:07:36;;;;;;;;;;;;;;;;;;5107841;28;19920;-68
2022/05/28 01:10:02;;;;;;;;;;;;;;;;;;5107763;28;19927;-68
2022/05/28 01:12:28;;;;;;;;;;;;;;;;;;5107699;28;19920;-67
2022/05/28 01:14:54;;;;;;;;;;;;;;;;;;5107466;28;19920;-67
2022/05/28 01:17:20;;;;;;;;;;;;;;;;;;5107548;28;19920;-67
2022/05/28 01:19:46;;;;;;;;;;;;;;;;;;5107549;28;19920;-67
2022/05/28 01:22:12;;;;;;;;;;;;;;;;;;5107471;28;20387;-67
2022/05/28 01:24:38;;;;;;;;;;;;;;;;;;5107634;28;19927;-67
2022/05/28 01:27:04;;;;;;;;;;;;;;;;;;5089184;28;19920;-68
2022/05/28 01:29:30;;;;;;;;;;;;;;;;;;5089108;28;19942;-67
2022/05/28 01:31:56;;;;;;;;;;;;;;;;;;5107380;28;19920;-67
2022/05/28 01:34:22;;;;;;;;;;;;;;;;;;5088997;28;19927;-68
2022/05/28 01:36:48;;;;;;;;;;;;;;;;;;5107284;28;19924;-68
2022/05/28 01:39:14;;;;;;;;;;;;;;;;;;5107375;28;20269;-67
2022/05/28 01:41:40;;;;;;;;;;;;;;;;;;5107169;28;19927;-68
2022/05/28 01:44:06;;;;;;;;;;;;;;;;;;5088741;28;19920;-68
2022/05/28 01:46:32;;;;;;;;;;;;;;;;;;5107112;28;19927;-68
2022/05/28 01:48:58;;;;;;;;;;;;;;;;;;5107300;28;19920;-67
2022/05/28 01:51:24;;;;;;;;;;;;;;;;;;5106894;28;19927;-67
2022/05/28 01:54:11;;;;;;;;;;;;;;;;;;5088694;28;19924;-67
2022/05/28 01:56:37;;;;;;;;;;;;;;;;;;5106965;28;19927;-67
2022/05/28 01:59:03;;;;;;;;;;;;;;;;;;5105644;28;19924;-67
2022/05/28 02:01:29;;;;;;;;;;;;;;;;;;5105874;28;19920;-67
2022/05/28 02:03:55;;;;;;;;;;;;;;;;;;5106425;28;19952;-67
2022/05/28 02:06:21;;;;;;;;;;;;;;;;;;5106622;28;20018;-68
2022/05/28 02:08:47;;;;;;;;;;;;;;;;;;5088672;28;19974;-68
2022/05/28 02:11:13;;;;;;;;;;;;;;;;;;5088169;28;19924;-68
2022/05/28 02:13:39;;;;;;;;;;;;;;;;;;5088438;28;19970;-67
2022/05/28 02:16:05;;;;;;;;;;;;;;;;;;5088385;28;20294;-67
2022/05/28 02:18:31;;;;;;;;;;;;;;;;;;5106418;28;19920;-68
2022/05/28 02:20:57;;;;;;;;;;;;;;;;;;5106769;28;19924;-67
2022/05/28 02:23:24;;;;;;;;;;;;;;;;;;5088234;28;19969;-67
2022/05/28 02:25:50;;;;;;;;;;;;;;;;;;5106263;28;19919;-67
2022/05/28 02:28:16;;;;;;;;;;;;;;;;;;5106349;28;19920;-67
2022/05/28 02:30:42;;;;;;;;;;;;;;;;;;5088230;28;20010;-67
2022/05/28 02:33:08;;;;;;;;;;;;;;;;;;5105975;28;20364;-67
2022/05/28 02:35:34;;;;;;;;;;;;;;;;;;5106147;28;19928;-67
2022/05/28 02:38:00;;;;;;;;;;;;;;;;;;5088015;28;19920;-67
2022/05/28 02:40:26;;;;;;;;;;;;;;;;;;5106181;28;19924;-67
2022/05/28 02:42:53;;;;;;;;;;;;;;;;;;5087795;28;19927;-68
2022/05/28 02:45:19;;;;;;;;;;;;;;;;;;5105772;28;19920;-68
2022/05/28 02:47:45;;;;;;;;;;;;;;;;;;5087797;28;19920;-67
2022/05/28 02:50:11;;;;;;;;;;;;;;;;;;5105821;28;19920;-68
2022/05/28 02:52:37;;;;;;;;;;;;;;;;;;5106015;28;20386;-65
2022/05/28 02:55:03;;;;;;;;;;;;;;;;;;5101937;28;20368;-67
2022/05/28 02:57:29;;;;;;;;;;;;;;;;;;5078489;28;19920;-67
2022/05/28 02:59:56;;;;;;;;;;;;;;;;;;5081428;28;19943;-67
2022/05/28 03:02:22;;;;;;;;;;;;;;;;;;5077753;28;19921;-67
2022/05/28 03:04:48;;;;;;;;;;;;;;;;;;5071387;28;20300;-67
2022/05/28 03:07:14;;;;;;;;;;;;;;;;;;5054530;28;19920;-67
2022/05/28 03:09:40;;;;;;;;;;;;;;;;;;5053426;28;19963;-67
2022/05/28 03:12:06;;;;;;;;;;;;;;;;;;5101666;28;19945;-67
2022/05/28 03:14:32;;;;;;;;;;;;;;;;;;5119512;28;19924;-67
2022/05/28 03:16:58;;;;;;;;;;;;;;;;;;5105364;28;19926;-67
2022/05/28 03:19:24;;;;;;;;;;;;;;;;;;5120936;28;19935;-66
2022/05/28 03:21:50;;;;;;;;;;;;;;;;;;5105433;28;19927;-66
2022/05/28 03:24:16;;;;;;;;;;;;;;;;;;5105382;28;19924;-67
2022/05/28 03:26:42;;;;;;;;;;;;;;;;;;5105078;28;19920;-67
2022/05/28 03:29:08;;;;;;;;;;;;;;;;;;5105064;28;19919;-66
2022/05/28 03:31:34;;;;;;;;;;;;;;;;;;5119500;28;19974;-67
2022/05/28 03:34:00;;;;;;;;;;;;;;;;;;5105070;28;19983;-66
2022/05/28 03:36:26;;;;;;;;;;;;;;;;;;5105340;28;19931;-65
2022/05/28 03:38:52;;;;;;;;;;;;;;;;;;5105237;28;19920;-68
2022/05/28 03:41:18;;;;;;;;;;;;;;;;;;5105266;28;19920;-67
2022/05/28 03:43:44;;;;;;;;;;;;;;;;;;5105156;28;19924;-67
2022/05/28 03:46:10;;;;;;;;;;;;;;;;;;5115371;28;19927;-67
2022/05/28 03:48:36;;;;;;;;;;;;;;;;;;5108611;28;19920;-67
2022/05/28 03:51:02;;;;;;;;;;;;;;;;;;5105127;28;19927;-67
2022/05/28 03:53:28;;;;;;;;;;;;;;;;;;5104891;28;19920;-67
2022/05/28 03:55:54;;;;;;;;;;;;;;;;;;5104997;28;19924;-67
2022/05/28 03:58:20;;;;;;;;;;;;;;;;;;5105065;28;19920;-67
2022/05/28 04:00:46;;;;;;;;;;;;;;;;;;5120489;28;19923;-67
2022/05/28 04:03:12;;;;;;;;;;;;;;;;;;5104629;28;19920;-67
2022/05/28 04:05:38;;;;;;;;;;;;;;;;;;5119024;28;19920;-67
2022/05/28 04:08:04;;;;;;;;;;;;;;;;;;5105009;28;19920;-67
2022/05/28 04:10:30;;;;;;;;;;;;;;;;;;5104820;28;19924;-66
2022/05/28 04:12:56;;;;;;;;;;;;;;;;;;5104741;28;19946;-67
2022/05/28 04:15:24;;;;;;;;;;;;;;;;;;5120664;28;20075;-67
2022/05/28 04:17:50;;;;;;;;;;;;;;;;;;5104720;28;19920;-67
2022/05/28 04:20:16;;;;;;;;;;;;;;;;;;5104889;28;19955;-66
2022/05/28 04:22:42;;;;;;;;;;;;;;;;;;5086385;28;19927;-67
2022/05/28 04:25:08;;;;;;;;;;;;;;;;;;5107932;28;19923;-66
2022/05/28 04:27:34;;;;;;;;;;;;;;;;;;5090412;28;19920;-66
2022/05/28 04:30:00;;;;;;;;;;;;;;;;;;5090495;28;20002;-67
2022/05/28 04:32:26;;;;;;;;;;;;;;;;;;5124293;28;19969;-67
2022/05/28 04:34:52;;;;;;;;;;;;;;;;;;5108211;28;20362;-67
2022/05/28 04:37:18;;;;;;;;;;;;;;;;;;5108414;28;19927;-66
2022/05/28 04:39:45;;;;;;;;;;;;;;;;;;5123990;28;19971;-66
2022/05/28 04:42:11;;;;;;;;;;;;;;;;;;5090084;28;19920;-67
2022/05/28 04:44:37;;;;;;;;;;;;;;;;;;5108567;28;19920;-67
2022/05/28 04:47:03;;;;;;;;;;;;;;;;;;5103637;28;20461;-67
2022/05/28 04:49:29;;;;;;;;;;;;;;;;;;5090060;28;19959;-67
2022/05/28 04:51:55;;;;;;;;;;;;;;;;;;5107983;28;20002;-66
2022/05/28 04:54:21;;;;;;;;;;;;;;;;;;5108076;28;19927;-67
2022/05/28 04:56:47;;;;;;;;;;;;;;;;;;5107905;28;19965;-67
2022/05/28 04:59:13;;;;;;;;;;;;;;;;;;5123541;28;19924;-67
2022/05/28 05:01:39;;;;;;;;;;;;;;;;;;5107705;28;19926;-67
2022/05/28 05:04:05;;;;;;;;;;;;;;;;;;5092323;28;20658;-67
2022/05/28 05:06:31;;;;;;;;;;;;;;;;;;5134930;27;19920;-67
2022/05/28 05:08:57;;;;;;;;;;;;;;;;;;5124038;28;19920;-67
2022/05/28 05:11:23;;;;;;;;;;;;;;;;;;5102678;28;19946;-67
2022/05/28 05:13:49;;;;;;;;;;;;;;;;;;5107694;28;19924;-67
2022/05/28 05:16:15;;;;;;;;;;;;;;;;;;5121794;28;19920;-67
2022/05/28 05:18:41;;;;;;;;;;;;;;;;;;5118788;28;20410;-67
2022/05/28 05:21:07;;;;;;;;;;;;;;;;;;5110499;28;19920;-67
2022/05/28 05:23:33;;;;;;;;;;;;;;;;;;5123303;28;19944;-67
2022/05/28 05:25:59;;;;;;;;;;;;;;;;;;5107500;28;19919;-67
2022/05/28 05:28:25;;;;;;;;;;;;;;;;;;5107502;28;19927;-67
2022/05/28 05:30:51;;;;;;;;;;;;;;;;;;5107321;28;19966;-67
2022/05/28 05:33:17;;;;;;;;;;;;;;;;;;5107066;28;19920;-67
2022/05/28 05:35:43;;;;;;;;;;;;;;;;;;5107107;28;19931;-67
2022/05/28 05:38:09;;;;;;;;;;;;;;;;;;5121462;28;19920;-67
2022/05/28 05:40:35;;;;;;;;;;;;;;;;;;5107339;28;19923;-67
2022/05/28 05:43:01;;;;;;;;;;;;;;;;;;5107195;28;19927;-67
2022/05/28 05:45:27;;;;;;;;;;;;;;;;;;5114315;28;19976;-67
2022/05/28 05:47:53;;;;;;;;;;;;;;;;;;5095669;28;19924;-67
2022/05/28 05:50:19;;;;;;;;;;;;;;;;;;5107050;28;19920;-67
2022/05/28 05:52:46;;;;;;;;;;;;;;;;;;5107014;28;19927;-67
2022/05/28 05:55:12;;;;;;;;;;;;;;;;;;5102870;28;19920;-66
2022/05/28 05:57:38;;;;;;;;;;;;;;;;;;5106904;28;19971;-69
2022/05/28 06:00:04;;;;;;;;;;;;;;;;;;5088260;28;19930;-67
2022/05/28 06:02:30;;;;;;;;;;;;;;;;;;5122513;28;19963;-67
2022/05/28 06:04:58;;;;;;;;;;;;;;;;;;5116441;28;19927;-67
2022/05/28 06:07:23;;;;;;;;;;;;;;;;;;5092266;28;19931;-67
2022/05/28 06:09:49;;;;;;;;;;;;;;;;;;5106656;28;19920;-67
2022/05/28 06:12:15;;;;;;;;;;;;;;;;;;5106518;28;19927;-68
2022/05/28 06:14:41;;;;;;;;;;;;;;;;;;5106376;28;19920;-67
2022/05/28 06:17:07;;;;;;;;;;;;;;;;;;5122034;28;19927;-67
2022/05/28 06:19:33;;;;;;;;;;;;;;;;;;5106432;28;19967;-67
2022/05/28 06:21:59;;;;;;;;;;;;;;;;;;5106305;28;20002;-68
2022/05/28 06:24:25;;;;;;;;;;;;;;;;;;5106156;28;20018;-67
2022/05/28 06:26:51;;;;;;;;;;;;;;;;;;5106328;28;19920;-67
2022/05/28 06:29:17;;;;;;;;;;;;;;;;;;5121711;28;20298;-67
2022/05/28 06:31:43;;;;;;;;;;;;;;;;;;5105746;28;19935;-67
2022/05/28 06:34:09;;;;;;;;;;;;;;;;;;5105945;28;19919;-68
2022/05/28 06:36:35;;;;;;;;;;;;;;;;;;5105817;28;19923;-67
2022/05/28 06:39:01;;;;;;;;;;;;;;;;;;5105904;28;19938;-67
2022/05/28 06:41:27;;;;;;;;;;;;;;;;;;5105801;28;20287;-67
2022/05/28 06:43:53;;;;;;;;;;;;;;;;;;5105664;28;19931;-67
2022/05/28 06:46:19;;;;;;;;;;;;;;;;;;5087082;28;19920;-67
2022/05/28 06:48:45;;;;;;;;;;;;;;;;;;5119690;28;19960;-67
2022/05/28 06:51:11;;;;;;;;;;;;;;;;;;5105709;28;19920;-67
2022/05/28 06:53:37;;;;;;;;;;;;;;;;;;5110217;28;19920;-67
2022/05/28 06:56:03;;;;;;;;;;;;;;;;;;5115186;28;19924;-66
2022/05/28 06:58:29;;;;;;;;;;;;;;;;;;5105310;28;20260;-67
2022/05/28 07:00:55;;;;;;;;;;;;;;;;;;5105239;28;19920;-66
2022/05/28 07:03:21;;;;;;;;;;;;;;;;;;5105277;28;19942;-67
2022/05/28 07:05:47;;;;;;;;;;;;;;;;;;5119697;28;19935;-67
2022/05/28 07:08:13;;;;;;;;;;;;;;;;;;5087321;28;19964;-67
2022/05/28 07:10:39;;;;;;;;;;;;;;;;;;5105195;28;19920;-66
2022/05/28 07:13:05;;;;;;;;;;;;;;;;;;5105706;28;19920;-67
2022/05/28 07:15:31;;;;;;;;;;;;;;;;;;5087058;28;19920;-66
2022/05/28 07:17:57;;;;;;;;;;;;;;;;;;5105260;28;19946;-68
2022/05/28 07:20:23;;;;;;;;;;;;;;;;;;5105283;28;19924;-67
2022/05/28 07:22:49;;;;;;;;;;;;;;;;;;5119387;28;19924;-67
2022/05/28 07:25:15;;;;;;;;;;;;;;;;;;5121057;28;19927;-67
2022/05/28 07:27:43;;;;;;;;;;;;;;;;;;5135133;27;19920;-67
2022/05/28 07:30:09;;;;;;;;;;;;;;;;;;5104790;28;19981;-68
2022/05/28 07:32:35;;;;;;;;;;;;;;;;;;5118487;28;19920;-67
2022/05/28 07:35:01;;;;;;;;;;;;;;;;;;5087239;28;19919;-68
2022/05/28 07:37:27;;;;;;;;;;;;;;;;;;5105060;28;19964;-67
2022/05/28 07:39:53;;;;;;;;;;;;;;;;;;5104914;28;19971;-67
2022/05/28 07:42:19;;;;;;;;;;;;;;;;;;5105136;28;19963;-67
2022/05/28 07:44:45;;;;;;;;;;;;;;;;;;5120454;28;19923;-67
2022/05/28 07:47:11;;;;;;;;;;;;;;;;;;5105105;28;19920;-67
2022/05/28 07:49:37;;;;;;;;;;;;;;;;;;5120846;28;19924;-67
2022/05/28 07:52:03;;;;;;;;;;;;;;;;;;5104862;28;19934;-67
2022/05/28 07:54:29;;;;;;;;;;;;;;;;;;5105034;28;19920;-67
2022/05/28 07:56:55;;;;;;;;;;;;;;;;;;5119278;28;19999;-68
2022/05/28 07:59:21;;;;;;;;;;;;;;;;;;5108781;28;19924;-68
2022/05/28 08:01:47;;;;;;;;;;;;;;;;;;5108872;28;20322;-68
2022/05/28 08:04:13;;;;;;;;;;;;;;;;;;5112946;28;19927;-67
2022/05/28 08:06:40;;;;;;;;;;;;;;;;;;5129499;28;19919;-67
2022/05/28 08:09:06;;;;;;;;;;;;;;;;;;5094448;28;19920;-67
2022/05/28 08:11:32;;;;;;;;;;;;;;;;;;5108918;28;19951;-68
2022/05/28 08:13:58;;;;;;;;;;;;;;;;;;5108762;28;20011;-68
2022/05/28 08:16:24;;;;;;;;;;;;;;;;;;5090329;28;19919;-67
2022/05/28 08:18:50;;;;;;;;;;;;;;;;;;5090475;28;19967;-67
2022/05/28 08:24:01;;;;;;;;;;;;;;;;;;5108715;28;19946;-68
2022/05/28 08:26:27;;;;;;;;;;;;;;;;;;5108439;28;20394;-67
2022/05/28 08:28:53;;;;;;;;;;;;;;;;;;5108587;28;19924;-66
2022/05/28 08:31:19;;;;;;;;;;;;;;;;;;5108290;28;19959;-67
2022/05/28 08:33:45;;;;;;;;;;;;;;;;;;5108335;28;19924;-67
2022/05/28 08:36:11;;;;;;;;;;;;;;;;;;5108411;28;19920;-67
2022/05/28 08:38:37;;;;;;;;;;;;;;;;;;5108521;28;19920;-67
2022/05/28 08:41:03;;;;;;;;;;;;;;;;;;5108343;28;19920;-68
2022/05/28 08:43:29;;;;;;;;;;;;;;;;;;5108187;28;19927;-69
2022/05/28 08:45:55;;;;;;;;;;;;;;;;;;5108134;28;19920;-67
2022/05/28 08:48:21;;;;;;;;;;;;;;;;;;5122475;28;19920;-67
2022/05/28 08:50:47;;;;;;;;;;;;;;;;;;5108303;28;19923;-68
2022/05/28 08:53:13;;;;;;;;;;;;;;;;;;5107932;28;19920;-68
2022/05/28 08:55:39;;;;;;;;;;;;;;;;;;5108013;28;19923;-67
2022/05/28 08:58:05;;;;;;;;;;;;;;;;;;5108001;28;19943;-67
2022/05/28 09:00:31;;;;;;;;;;;;;;;;;;5107814;28;19924;-68
2022/05/28 09:02:57;;;;;;;;;;;;;;;;;;5107893;28;19920;-68
2022/05/28 09:05:23;;;;;;;;;;;;;;;;;;5121420;28;19920;-67
2022/05/28 09:07:49;;;;;;;;;;;;;;;;;;5108261;28;19920;-67
2022/05/28 09:10:15;;;;;;;;;;;;;;;;;;5107134;28;19926;-67
2022/05/28 09:12:41;;;;;;;;;;;;;;;;;;5107518;28;20355;-67
2022/05/28 09:15:07;;;;;;;;;;;;;;;;;;5107660;28;19943;-67
2022/05/28 09:17:33;;;;;;;;;;;;;;;;;;5107576;28;20394;-67
2022/05/28 09:19:59;;;;;;;;;;;;;;;;;;5107658;28;20226;-66
2022/05/28 09:22:25;;;;;;;;;;;;;;;;;;5107561;28;19920;-67
2022/05/28 09:24:51;;;;;;;;;;;;;;;;;;5113259;28;19919;-67
2022/05/28 09:27:17;;;;;;;;;;;;;;;;;;5115576;28;19967;-67
2022/05/28 09:29:43;;;;;;;;;;;;;;;;;;5121681;28;19920;-67
2022/05/28 09:32:09;;;;;;;;;;;;;;;;;;5107502;28;19920;-67
2022/05/28 09:34:35;;;;;;;;;;;;;;;;;;5107065;28;20371;-67
2022/05/28 09:37:01;;;;;;;;;;;;;;;;;;5089129;28;19919;-67
2022/05/28 09:39:27;;;;;;;;;;;;;;;;;;5089115;28;19920;-67
2022/05/28 09:41:53;;;;;;;;;;;;;;;;;;5107249;28;19954;-67
2022/05/28 09:44:19;;;;;;;;;;;;;;;;;;5122797;28;19981;-66
2022/05/28 09:46:45;;;;;;;;;;;;;;;;;;5106978;28;19924;-67
2022/05/28 09:49:11;;;;;;;;;;;;;;;;;;5107119;28;19989;-67
2022/05/28 09:51:37;;;;;;;;;;;;;;;;;;5122704;28;19924;-67
2022/05/28 09:54:20;;;;;;;;;;;;;;;;;;5106972;28;19977;-67
2022/05/28 09:56:46;;;;;;;;;;;;;;;;;;5106977;28;19927;-68
2022/05/28 09:59:12;;;;;;;;;;;;;;;;;;5106886;28;19959;-67
2022/05/28 10:01:38;;;;;;;;;;;;;;;;;;5106570;28;19959;-67
2022/05/28 10:06:48;;;;;;;;;;;;;;;;;;5131600;27;19927;-67
2022/05/28 10:09:14;;;;;;;;;;;;;;;;;;5122384;28;19924;-67
2022/05/28 10:11:40;;;;;;;;;;;;;;;;;;5116083;28;19923;-67
2022/05/28 10:14:06;;;;;;;;;;;;;;;;;;5112594;28;19920;-67
2022/05/28 10:16:32;;;;;;;;;;;;;;;;;;5100897;28;19920;-67
2022/05/28 10:18:58;;;;;;;;;;;;;;;;;;5088271;28;19927;-67
2022/05/28 10:21:24;;;;;;;;;;;;;;;;;;5105494;28;19920;-67
2022/05/28 10:23:50;;;;;;;;;;;;;;;;;;5106387;28;20295;-67
2022/05/28 10:26:16;;;;;;;;;;;;;;;;;;5102145;28;19920;-67
2022/05/28 10:28:42;;;;;;;;;;;;;;;;;;5106438;28;19920;-67
2022/05/28 10:31:08;;;;;;;;;;;;;;;;;;5087956;28;19920;-68
2022/05/28 10:33:34;;;;;;;;;;;;;;;;;;5106102;28;19924;-67
2022/05/28 10:36:00;;;;;;;;;;;;;;;;;;5120019;28;19964;-68
2022/05/28 10:38:26;;;;;;;;;;;;;;;;;;5112250;28;19924;-67
2022/05/28 10:40:52;;;;;;;;;;;;;;;;;;5114523;28;19920;-68
2022/05/28 10:43:33;;;;;;;;;;;;;;;;;;5143925;27;19912;-69
2022/05/28 10:45:59;;;;;;;;;;;;;;;;;;5143798;27;19928;-69
2022/05/28 10:48:27;;;;;;;;;;;;;;;;;;5143564;28;19927;-70
2022/05/28 10:50:53;;;;;;;;;;;;;;;;;;5143425;27;19948;-70
2022/05/28 10:53:19;;;;;;;;;;;;;;;;;;5142146;28;19926;-69
2022/05/28 10:55:45;;;;;;;;;;;;;;;;;;5143625;28;19923;-70
2022/05/28 10:58:11;;;;;;;;;;;;;;;;;;5142105;28;19924;-69
2022/05/28 11:00:37;;;;;;;;;;;;;;;;;;5143345;28;19927;-69
2022/05/28 11:03:03;;;;;;;;;;;;;;;;;;5143014;28;20351;-70
2022/05/28 11:05:29;;;;;;;;;;;;;;;;;;5143174;28;19928;-69
2022/05/28 11:07:55;;;;;;;;;;;;;;;;;;5143408;27;19945;-70
2022/05/28 11:10:21;;;;;;;;;;;;;;;;;;5143324;28;19923;-70
2022/05/28 11:12:48;;;;;;;;;;;;;;;;;;5143127;28;19923;-69
2022/05/28 11:15:14;;;;;;;;;;;;;;;;;;5143157;27;19931;-69
2022/05/28 11:17:40;;;;;;;;;;;;;;;;;;5143059;28;19924;-70
2022/05/28 11:20:06;;;;;;;;;;;;;;;;;;5143002;28;19924;-69
2022/05/28 11:22:32;;;;;;;;;;;;;;;;;;5143229;28;19923;-70
2022/05/28 11:25:04;;;;;;;;;;;;;;;;;;5142977;28;19923;-70
2022/05/28 11:27:30;;;;;;;;;;;;;;;;;;5142967;27;19923;-70
2022/05/28 11:29:56;;;;;;;;;;;;;;;;;;5142641;28;19945;-69
2022/05/28 11:32:22;;;;;;;;;;;;;;;;;;5142764;28;19927;-70
2022/05/28 11:34:48;;;;;;;;;;;;;;;;;;5142488;28;19923;-70
2022/05/28 11:37:14;;;;;;;;;;;;;;;;;;5142900;28;20302;-70
2022/05/28 11:39:40;;;;;;;;;;;;;;;;;;5142659;28;19923;-70
2022/05/28 11:42:06;;;;;;;;;;;;;;;;;;5142432;27;19924;-70
2022/05/28 11:44:32;;;;;;;;;;;;;;;;;;5141521;28;19924;-69
2022/05/28 11:46:58;;;;;;;;;;;;;;;;;;5142096;28;19931;-70
2022/05/28 11:52:10;;;;;;;;;;;;;;;;;;5128610;28;20202;-70
2022/05/28 11:54:36;;;;;;;;;;;;;;;;;;5129806;27;19935;-70
2022/05/28 11:57:03;;;;;;;;;;;;;;;;;;5128536;28;19924;-70
2022/05/28 11:59:29;;;;;;;;;;;;;;;;;;5128983;28;20108;-69
2022/05/28 12:01:55;;;;;;;;;;;;;;;;;;5128499;28;19932;-69
2022/05/28 12:04:21;;;;;;;;;;;;;;;;;;5128127;28;19945;-70
2022/05/28 12:06:48;;;;;;;;;;;;;;;;;;5128521;28;19973;-70
2022/05/28 12:09:14;;;;;;;;;;;;;;;;;;5128399;28;19931;-70
2022/05/28 12:11:40;;;;;;;;;;;;;;;;;;5128411;28;19984;-70
2022/05/28 12:14:06;;;;;;;;;;;;;;;;;;5144320;27;19971;-70
2022/05/28 12:16:32;;;;;;;;;;;;;;;;;;5128048;28;19930;-70
2022/05/28 12:18:59;;;;;;;;;;;;;;;;;;5128254;28;19931;-70
2022/05/28 12:21:25;;;;;;;;;;;;;;;;;;5128051;28;19924;-70
2022/05/28 12:23:51;;;;;;;;;;;;;;;;;;5127925;28;20394;-70
2022/05/28 12:26:35;;;;;;;;;;;;;;;;;;5126717;28;19924;-70
2022/05/28 12:29:02;;;;;;;;;;;;;;;;;;5127795;28;20452;-70
2022/05/28 12:31:28;;;;;;;;;;;;;;;;;;5127794;28;19928;-70
2022/05/28 12:33:54;;;;;;;;;;;;;;;;;;5127718;28;19924;-70
2022/05/28 12:36:20;;;;;;;;;;;;;;;;;;5127738;28;19999;-69
2022/05/28 12:38:46;;;;;;;;;;;;;;;;;;5128019;28;19927;-70
2022/05/28 12:41:12;;;;;;;;;;;;;;;;;;5127305;28;19927;-69
2022/05/28 12:43:39;;;;;;;;;;;;;;;;;;5127661;28;19923;-70
2022/05/28 12:46:05;;;;;;;;;;;;;;;;;;5127637;28;19927;-70
2022/05/28 12:48:31;;;;;;;;;;;;;;;;;;5127473;28;20315;-70
2022/05/28 12:50:59;;;;;;;;;;;;;;;;;;5127439;28;19955;-70
2022/05/28 12:53:25;;;;;;;;;;;;;;;;;;5127598;28;19919;-70
2022/05/28 12:55:51;;;;;;;;;;;;;;;;;;5127698;28;20334;-71
2022/05/28 12:58:17;;;;;;;;;;;;;;;;;;5127507;28;19955;-70
2022/05/28 13:00:43;;;;;;;;;;;;;;;;;;5127463;28;19973;-70
2022/05/28 13:03:09;;;;;;;;;;;;;;;;;;5127217;28;19981;-71
2022/05/28 13:05:35;;;;;;;;;;;;;;;;;;5126171;28;19924;-70
2022/05/28 13:08:02;;;;;;;;;;;;;;;;;;5127273;28;19924;-70
2022/05/28 13:10:28;;;;;;;;;;;;;;;;;;5127231;28;19924;-69
2022/05/28 13:12:54;;;;;;;;;;;;;;;;;;5125623;28;19977;-70
2022/05/28 13:15:20;;;;;;;;;;;;;;;;;;5126993;28;19923;-69
2022/05/28 13:17:46;;;;;;;;;;;;;;;;;;5127119;28;20019;-70
2022/05/28 13:20:12;;;;;;;;;;;;;;;;;;5125760;28;20377;-70
2022/05/28 13:22:38;;;;;;;;;;;;;;;;;;5126890;28;19924;-70
2022/05/28 13:25:04;;;;;;;;;;;;;;;;;;5126781;28;19931;-70
2022/05/28 13:27:30;;;;;;;;;;;;;;;;;;5126619;28;19992;-70
2022/05/28 13:29:56;;;;;;;;;;;;;;;;;;5126560;28;19927;-69
2022/05/28 13:32:22;;;;;;;;;;;;;;;;;;5125633;28;19984;-70
2022/05/28 13:34:48;;;;;;;;;;;;;;;;;;5126289;28;19923;-70
2022/05/28 13:37:14;;;;;;;;;;;;;;;;;;5126901;28;20455;-70
2022/05/28 13:39:40;;;;;;;;;;;;;;;;;;5126550;28;19939;-70
2022/05/28 13:42:11;;;;;;;;;;;;;;;;;;5126374;28;19924;-71
2022/05/28 13:44:37;;;;;;;;;;;;;;;;;;5126383;28;20387;-70
2022/05/28 13:47:03;;;;;;;;;;;;;;;;;;5126495;28;20295;-71
2022/05/28 13:49:29;;;;;;;;;;;;;;;;;;5125214;28;19938;-70
2022/05/28 13:51:55;;;;;;;;;;;;;;;;;;5126446;28;19979;-70
2022/05/28 13:54:21;;;;;;;;;;;;;;;;;;5126357;28;19924;-70
2022/05/28 13:56:47;;;;;;;;;;;;;;;;;;5126382;28;19927;-70
2022/05/28 13:59:13;;;;;;;;;;;;;;;;;;5126383;28;19931;-70
2022/05/28 14:01:39;;;;;;;;;;;;;;;;;;5126001;28;19928;-70
2022/05/28 14:04:05;;;;;;;;;;;;;;;;;;5126070;28;19931;-70
2022/05/28 14:06:31;;;;;;;;;;;;;;;;;;5126142;28;19930;-70
2022/05/28 14:08:57;;;;;;;;;;;;;;;;;;5126067;28;20038;-70
2022/05/28 14:11:24;;;;;;;;;;;;;;;;;;5126198;28;19923;-70
2022/05/28 14:13:50;;;;;;;;;;;;;;;;;;5126099;28;19924;-70
2022/05/28 14:16:16;;;;;;;;;;;;;;;;;;5124166;28;19923;-71
2022/05/28 14:18:42;;;;;;;;;;;;;;;;;;5126107;28;19924;-70
2022/05/28 14:21:08;;;;;;;;;;;;;;;;;;5125835;28;19924;-70
2022/05/28 14:23:34;;;;;;;;;;;;;;;;;;5126090;28;20001;-70
2022/05/28 14:26:00;;;;;;;;;;;;;;;;;;5125760;28;19933;-71
2022/05/28 14:28:26;;;;;;;;;;;;;;;;;;5124571;28;20387;-71
2022/05/28 14:30:53;;;;;;;;;;;;;;;;;;5125774;28;19935;-71
2022/05/28 14:33:19;;;;;;;;;;;;;;;;;;5125526;28;20382;-71
2022/05/28 14:35:45;;;;;;;;;;;;;;;;;;5125830;28;19928;-71
2022/05/28 14:38:11;;;;;;;;;;;;;;;;;;5125742;28;19969;-71
2022/05/28 14:40:37;;;;;;;;;;;;;;;;;;5124447;28;19931;-71
2022/05/28 14:43:03;;;;;;;;;;;;;;;;;;5125331;28;19924;-71
2022/05/28 14:45:29;;;;;;;;;;;;;;;;;;5125809;28;19923;-71
2022/05/28 14:47:55;;;;;;;;;;;;;;;;;;5125773;28;19949;-71
2022/05/28 14:50:21;;;;;;;;;;;;;;;;;;5125635;28;19928;-72
2022/05/28 14:52:47;;;;;;;;;;;;;;;;;;5125670;28;19930;-71
2022/05/28 14:55:13;;;;;;;;;;;;;;;;;;5125707;28;20369;-70
2022/05/28 14:57:39;;;;;;;;;;;;;;;;;;5125659;28;19936;-70
2022/05/28 15:00:05;;;;;;;;;;;;;;;;;;5125257;28;19924;-71
2022/05/28 15:02:31;;;;;;;;;;;;;;;;;;5125566;28;19931;-71
2022/05/28 15:04:57;;;;;;;;;;;;;;;;;;5125255;28;19962;-71
2022/05/28 15:07:23;;;;;;;;;;;;;;;;;;5125636;28;19928;-71
2022/05/28 15:09:50;;;;;;;;;;;;;;;;;;5125560;28;19928;-70
2022/05/28 15:12:16;;;;;;;;;;;;;;;;;;5125215;28;19931;-70
2022/05/28 15:14:42;;;;;;;;;;;;;;;;;;5125485;28;19945;-70
2022/05/28 15:17:08;;;;;;;;;;;;;;;;;;5125539;28;19924;-70
2022/05/28 15:19:34;;;;;;;;;;;;;;;;;;5125227;28;19978;-71
2022/05/28 15:22:00;;;;;;;;;;;;;;;;;;5125249;28;19924;-70
2022/05/28 15:24:27;;;;;;;;;;;;;;;;;;5125323;28;19931;-71
2022/05/28 15:26:53;;;;;;;;;;;;;;;;;;5125255;28;19924;-70
2022/05/28 15:29:19;;;;;;;;;;;;;;;;;;5126319;28;19923;-70
2022/05/28 15:31:45;;;;;;;;;;;;;;;;;;5129029;28;19928;-69
2022/05/28 15:34:11;;;;;;;;;;;;;;;;;;5129015;28;19930;-69
2022/05/28 15:39:22;;;;;;;;;;;;;;;;;;5129114;28;20010;-71
2022/05/28 15:41:48;;;;;;;;;;;;;;;;;;5128746;28;19934;-70
2022/05/28 15:44:14;;;;;;;;;;;;;;;;;;5128888;28;19928;-71
2022/05/28 15:46:40;;;;;;;;;;;;;;;;;;5128759;28;19928;-71
2022/05/28 15:49:07;;;;;;;;;;;;;;;;;;5129062;28;19930;-71
2022/05/28 15:51:33;;;;;;;;;;;;;;;;;;5128773;28;19981;-69
2022/05/28 15:53:59;;;;;;;;;;;;;;;;;;5128823;28;19923;-69
2022/05/28 15:56:25;;;;;;;;;;;;;;;;;;5128705;28;19924;-69
2022/05/28 15:58:51;;;;;;;;;;;;;;;;;;5128747;28;20443;-71
2022/05/28 16:01:17;;;;;;;;;;;;;;;;;;5128532;28;19924;-70
2022/05/28 16:03:43;;;;;;;;;;;;;;;;;;5128361;28;19931;-70
2022/05/28 16:06:10;;;;;;;;;;;;;;;;;;5128410;28;19924;-71
2022/05/28 16:08:39;;;;;;;;;;;;;;;;;;5128560;28;19945;-71
2022/05/28 16:11:05;;;;;;;;;;;;;;;;;;5128470;28;20412;-70
2022/05/28 16:13:31;;;;;;;;;;;;;;;;;;5128325;28;20011;-70
2022/05/28 16:15:57;;;;;;;;;;;;;;;;;;5128038;28;19924;-70
2022/05/28 16:18:23;;;;;;;;;;;;;;;;;;5128464;28;19924;-71
2022/05/28 16:20:49;;;;;;;;;;;;;;;;;;5128276;28;20382;-70
2022/05/28 16:23:15;;;;;;;;;;;;;;;;;;5128016;28;19924;-70
2022/05/28 16:25:41;;;;;;;;;;;;;;;;;;5128322;28;19924;-70
2022/05/28 16:28:07;;;;;;;;;;;;;;;;;;5127925;28;19919;-70
2022/05/28 16:30:33;;;;;;;;;;;;;;;;;;5127799;28;19924;-70
2022/05/28 16:32:59;;;;;;;;;;;;;;;;;;5127880;28;19923;-70
2022/05/28 16:35:25;;;;;;;;;;;;;;;;;;5126733;28;19924;-70
2022/05/28 16:37:51;;;;;;;;;;;;;;;;;;5127886;28;19930;-70
2022/05/28 16:40:17;;;;;;;;;;;;;;;;;;5127922;28;19920;-70
2022/05/28 16:42:43;;;;;;;;;;;;;;;;;;5127620;28;20310;-71
2022/05/28 16:45:09;;;;;;;;;;;;;;;;;;5127529;28;19935;-70
2022/05/28 16:47:35;;;;;;;;;;;;;;;;;;5127623;28;19920;-71
2022/05/28 16:50:01;;;;;;;;;;;;;;;;;;5127531;28;19931;-71